createdAt,value
2023-01-17T00:02:20.890Z,1.52
2023-01-17T00:05:06.462Z,1.52
2023-01-17T00:07:51.891Z,1.45
2023-01-17T00:10:23.940Z,1.10
2023-01-17T00:12:59.735Z,1.20
2023-01-17T00:15:27.696Z,1.33
2023-01-17T00:17:54.422Z,1.08
2023-01-17T00:20:42.870Z,0.88
2023-01-17T00:23:33.015Z,1.40
2023-01-17T00:26:05.406Z,1.10
2023-01-17T00:28:34.101Z,1.00
2023-01-17T00:31:01.310Z,1.17
2023-01-17T00:33:28.228Z,0.90
2023-01-17T00:35:56.973Z,0.90
2023-01-17T00:38:25.799Z,0.93
2023-01-17T00:40:52.918Z,0.90
2023-01-17T00:43:40.840Z,0.90
2023-01-17T00:46:27.251Z,0.70
2023-01-17T00:49:12.471Z,1.10
2023-01-17T00:51:57.763Z,1.20
2023-01-17T00:54:42.985Z,0.88
2023-01-17T00:57:28.068Z,1.00
2023-01-17T01:00:13.155Z,1.05
2023-01-17T01:02:58.434Z,1.40
2023-01-17T01:05:43.667Z,2.30
2023-01-17T01:08:54.954Z,2.80
2023-01-17T01:11:40.062Z,3.22
2023-01-17T01:14:28.999Z,3.13
2023-01-17T01:17:14.357Z,2.45
2023-01-17T01:19:59.312Z,3.40
2023-01-17T01:22:44.506Z,2.50
2023-01-17T01:25:29.729Z,1.73
2023-01-17T01:28:43.998Z,1.80
2023-01-17T01:31:29.103Z,1.92
2023-01-17T01:33:55.637Z,1.55
2023-01-17T01:36:22.341Z,1.55
2023-01-17T01:38:50.301Z,1.42
2023-01-17T01:41:16.950Z,1.58
2023-01-17T01:43:50.444Z,1.85
2023-01-17T01:46:32.319Z,1.83
2023-01-17T01:49:02.676Z,2.63
2023-01-17T01:51:40.521Z,2.20
2023-01-17T01:54:22.000Z,1.70
2023-01-17T01:56:50.901Z,2.03
2023-01-17T01:59:21.159Z,1.98
2023-01-17T02:01:50.026Z,2.03
2023-01-17T02:04:17.983Z,3.22
2023-01-17T02:06:50.302Z,2.63
2023-01-17T02:09:18.498Z,3.08
2023-01-17T02:11:46.951Z,3.30
2023-01-17T02:14:18.288Z,2.67
2023-01-17T02:16:55.158Z,3.03
2023-01-17T02:19:35.396Z,2.80
2023-01-17T02:22:39.353Z,2.35
2023-01-17T02:25:05.846Z,1.40
2023-01-17T02:27:57.586Z,2.35
2023-01-17T02:30:43.606Z,2.95
2023-01-17T02:33:33.180Z,2.85
2023-01-17T02:36:30.324Z,2.80
2023-01-17T02:39:03.704Z,2.08
2023-01-17T02:41:40.730Z,3.83
2023-01-17T02:44:15.406Z,2.53
2023-01-17T02:46:52.023Z,2.90
2023-01-17T02:49:21.768Z,3.05
2023-01-17T02:52:07.238Z,2.80
2023-01-17T02:54:52.267Z,3.10
2023-01-17T02:57:33.405Z,3.20
2023-01-17T03:00:06.502Z,3.15
2023-01-17T03:02:49.852Z,1.55
2023-01-17T03:05:32.705Z,1.88
2023-01-17T03:08:01.335Z,2.92
2023-01-17T03:10:30.188Z,1.92
2023-01-17T03:12:58.377Z,2.25
2023-01-17T03:15:25.174Z,2.20
2023-01-17T03:17:55.510Z,3.25
2023-01-17T03:20:22.746Z,2.88
2023-01-17T03:22:49.475Z,2.70
2023-01-17T03:25:16.680Z,3.05
2023-01-17T03:27:43.270Z,3.55
2023-01-17T03:30:10.388Z,3.45
2023-01-17T03:32:36.924Z,2.80
2023-01-17T03:35:03.677Z,2.63
2023-01-17T03:37:30.197Z,3.10
2023-01-17T03:39:56.711Z,2.72
2023-01-17T03:42:23.234Z,2.42
2023-01-17T03:44:49.741Z,2.95
2023-01-17T03:47:16.232Z,2.95
2023-01-17T03:49:42.795Z,2.50
2023-01-17T03:52:09.350Z,2.90
2023-01-17T03:54:35.904Z,2.65
2023-01-17T03:57:02.427Z,2.90
2023-01-17T03:59:28.955Z,2.70
2023-01-17T04:01:55.613Z,2.17
2023-01-17T04:04:22.478Z,3.20
2023-01-17T04:06:49.041Z,2.38
2023-01-17T04:09:15.568Z,2.58
2023-01-17T04:11:42.107Z,2.13
2023-01-17T04:14:08.658Z,1.92
2023-01-17T04:16:37.532Z,2.75
2023-01-17T04:19:04.075Z,2.60
2023-01-17T04:21:30.727Z,2.40
2023-01-17T04:23:57.231Z,2.55
2023-01-17T04:26:23.763Z,2.40
2023-01-17T04:28:50.287Z,1.83
2023-01-17T04:31:17.529Z,2.03
2023-01-17T04:33:44.217Z,2.25
2023-01-17T04:36:10.859Z,1.70
2023-01-17T04:38:37.495Z,2.45
2023-01-17T04:41:04.185Z,2.88
2023-01-17T04:43:30.908Z,2.53
2023-01-17T04:45:58.248Z,2.58
2023-01-17T04:48:25.378Z,2.60
2023-01-17T04:50:51.928Z,2.13
2023-01-17T04:53:18.437Z,2.33
2023-01-17T04:55:46.583Z,2.08
2023-01-17T04:58:13.079Z,1.25
2023-01-17T05:00:39.580Z,2.25
2023-01-17T05:03:07.081Z,2.35
2023-01-17T05:05:33.641Z,2.60
2023-01-17T05:08:00.291Z,2.25
2023-01-17T05:10:27.139Z,2.40
2023-01-17T05:12:57.702Z,2.53
2023-01-17T05:15:25.193Z,2.28
2023-01-17T05:17:53.785Z,2.30
2023-01-17T05:20:22.325Z,1.73
2023-01-17T05:22:56.837Z,2.38
2023-01-17T05:25:32.076Z,2.58
2023-01-17T05:28:02.182Z,2.40
2023-01-17T05:30:31.238Z,3.03
2023-01-17T05:32:58.798Z,2.53
2023-01-17T05:35:28.609Z,2.30
2023-01-17T05:37:55.852Z,2.70
2023-01-17T05:40:28.408Z,2.70
2023-01-17T05:42:56.910Z,2.55
2023-01-17T05:45:26.167Z,2.53
2023-01-17T05:47:54.270Z,2.67
2023-01-17T05:50:24.005Z,2.85
2023-01-17T05:52:56.649Z,2.53
2023-01-17T05:55:24.425Z,2.97
2023-01-17T05:57:51.684Z,2.30
2023-01-17T06:00:19.001Z,1.40
2023-01-17T06:02:46.822Z,2.30
2023-01-17T06:05:14.485Z,2.47
2023-01-17T06:07:45.258Z,2.67
2023-01-17T06:10:16.554Z,2.97
2023-01-17T06:12:44.757Z,3.72
2023-01-17T06:15:15.947Z,3.15
2023-01-17T06:17:42.689Z,2.90
2023-01-17T06:20:11.096Z,2.28
2023-01-17T06:22:37.650Z,2.13
2023-01-17T06:25:04.468Z,2.60
2023-01-17T06:27:30.990Z,2.10
2023-01-17T06:29:57.618Z,3.53
2023-01-17T06:32:24.178Z,2.75
2023-01-17T06:34:50.778Z,3.30
2023-01-17T06:37:17.342Z,2.88
2023-01-17T06:39:43.938Z,1.90
2023-01-17T06:42:10.451Z,2.70
2023-01-17T06:44:37.016Z,1.90
2023-01-17T06:47:03.635Z,1.60
2023-01-17T06:49:30.186Z,2.00
2023-01-17T06:51:56.726Z,1.70
2023-01-17T06:54:23.279Z,2.08
2023-01-17T06:56:49.785Z,1.92
2023-01-17T06:59:16.342Z,1.80
2023-01-17T07:01:42.893Z,1.40
2023-01-17T07:04:09.568Z,1.65
2023-01-17T07:06:37.194Z,1.52
2023-01-17T07:09:04.446Z,1.30
2023-01-17T07:11:31.308Z,1.88
2023-01-17T07:13:57.908Z,1.65
2023-01-17T07:16:24.504Z,1.50
2023-01-17T07:18:51.848Z,1.13
2023-01-17T07:21:18.658Z,0.90
2023-01-17T07:23:45.284Z,1.30
2023-01-17T07:26:11.836Z,1.23
2023-01-17T07:28:38.378Z,1.08
2023-01-17T07:31:08.263Z,1.10
2023-01-17T07:33:35.593Z,1.23
2023-01-17T07:36:07.452Z,0.85
2023-01-17T07:38:34.635Z,2.33
2023-01-17T07:41:01.380Z,2.20
2023-01-17T07:43:27.999Z,3.20
2023-01-17T07:45:54.873Z,2.80
2023-01-17T07:48:23.746Z,2.17
2023-01-17T07:50:57.951Z,1.75
2023-01-17T07:53:26.555Z,1.17
2023-01-17T07:55:53.826Z,1.55
2023-01-17T07:58:20.945Z,1.20
2023-01-17T08:00:47.608Z,1.20
2023-01-17T08:03:16.577Z,0.80
2023-01-17T08:05:52.843Z,0.80
2023-01-17T08:08:19.667Z,0.80
2023-01-17T08:10:46.181Z,3.75
2023-01-17T08:13:12.745Z,3.95
2023-01-17T08:15:39.238Z,3.42
2023-01-17T08:18:05.805Z,3.42
2023-01-17T08:20:32.426Z,3.13
2023-01-17T08:22:59.014Z,3.60
2023-01-17T08:25:26.301Z,2.28
2023-01-17T08:27:57.571Z,2.50
2023-01-17T08:30:25.013Z,3.22
2023-01-17T08:32:51.653Z,2.58
2023-01-17T08:35:20.100Z,2.90
2023-01-17T08:37:47.877Z,2.17
2023-01-17T08:40:17.594Z,2.90
2023-01-17T08:42:44.302Z,3.45
2023-01-17T08:45:12.959Z,3.88
2023-01-17T08:47:39.510Z,3.10
2023-01-17T08:50:06.960Z,2.83
2023-01-17T08:52:34.037Z,3.10
2023-01-17T08:55:00.761Z,2.85
2023-01-17T08:57:27.493Z,2.42
2023-01-17T08:59:54.023Z,3.10
2023-01-17T09:02:21.220Z,3.50
2023-01-17T09:04:49.407Z,3.55
2023-01-17T09:07:20.475Z,3.38
2023-01-17T09:09:48.025Z,3.03
2023-01-17T09:12:14.539Z,2.60
2023-01-17T09:14:41.123Z,2.50
2023-01-17T09:17:07.712Z,2.15
2023-01-17T09:19:35.492Z,1.88
2023-01-17T09:22:04.271Z,1.75
2023-01-17T09:24:32.738Z,1.58
2023-01-17T09:26:59.991Z,1.48
2023-01-17T09:29:26.628Z,2.10
2023-01-17T09:31:53.458Z,2.22
2023-01-17T09:34:20.010Z,2.25
2023-01-17T09:36:46.689Z,1.75
2023-01-17T09:39:15.328Z,1.42
2023-01-17T09:42:17.411Z,2.00
2023-01-17T09:44:48.029Z,1.75
2023-01-17T09:47:37.466Z,2.30
2023-01-17T09:50:18.967Z,2.25
2023-01-17T09:52:45.545Z,2.10
2023-01-17T09:55:17.000Z,1.70
2023-01-17T09:57:59.081Z,2.33
2023-01-17T10:00:34.527Z,2.45
2023-01-17T10:03:01.061Z,2.13
2023-01-17T10:05:56.295Z,2.72
2023-01-17T10:08:50.579Z,2.53
2023-01-17T10:14:25.946Z,2.13
2023-01-17T10:17:08.795Z,3.03
2023-01-17T10:19:50.728Z,2.13
2023-01-17T10:22:49.364Z,3.40
2023-01-17T10:25:42.934Z,2.67
2023-01-17T10:28:17.320Z,1.95
2023-01-17T10:30:58.089Z,1.60
2023-01-17T10:33:31.363Z,2.30
2023-01-17T10:36:06.073Z,2.67
2023-01-17T10:38:37.898Z,2.38
2023-01-17T10:41:22.966Z,2.05
2023-01-17T10:44:06.200Z,1.98
2023-01-17T10:46:36.561Z,2.20
2023-01-17T10:49:03.799Z,1.90
2023-01-17T10:51:43.081Z,1.88
2023-01-17T10:54:21.720Z,1.80
2023-01-17T10:56:48.540Z,1.48
2023-01-17T10:59:31.247Z,1.60
2023-01-17T11:02:07.385Z,1.92
2023-01-17T11:04:37.322Z,1.52
2023-01-17T11:07:23.470Z,1.33
2023-01-17T11:09:53.310Z,1.67
2023-01-17T11:12:44.883Z,2.03
2023-01-17T11:15:11.447Z,1.38
2023-01-17T11:17:53.180Z,1.60
2023-01-17T11:20:39.917Z,1.70
2023-01-17T11:23:22.489Z,2.10
2023-01-17T11:25:50.595Z,2.30
2023-01-17T11:28:26.363Z,1.65
2023-01-17T11:30:55.661Z,1.35
2023-01-17T11:33:45.398Z,1.25
2023-01-17T11:36:30.186Z,1.30
2023-01-17T11:39:06.622Z,1.92
2023-01-17T11:41:35.970Z,1.77
2023-01-17T11:44:04.281Z,1.27
2023-01-17T11:46:31.718Z,1.58
2023-01-17T11:49:01.029Z,1.17
2023-01-17T11:51:35.245Z,1.35
2023-01-17T11:54:39.471Z,1.30
2023-01-17T11:57:19.480Z,1.15
2023-01-17T11:59:47.688Z,0.88
2023-01-17T12:02:39.843Z,1.08
2023-01-17T12:05:21.738Z,1.10
2023-01-17T12:08:07.076Z,0.90
2023-01-17T12:10:33.748Z,1.13
2023-01-17T12:13:43.520Z,1.95
2023-01-17T12:16:35.575Z,4.03
2023-01-17T12:19:18.504Z,2.08
2023-01-17T12:22:05.466Z,0.80
2023-01-17T12:25:08.837Z,0.80
2023-01-17T12:28:11.277Z,2.70
2023-01-17T12:30:37.749Z,1.05
2023-01-17T12:33:52.691Z,1.20
2023-01-17T12:36:43.896Z,1.85
2023-01-17T12:39:14.213Z,1.92
2023-01-17T12:41:53.495Z,2.60
2023-01-17T12:44:28.100Z,3.28
2023-01-17T12:47:02.817Z,2.40
2023-01-17T12:49:48.727Z,3.15
2023-01-17T12:52:35.312Z,0.90
2023-01-17T12:55:17.638Z,1.40
2023-01-17T12:57:56.759Z,1.73
2023-01-17T13:00:26.766Z,1.83
2023-01-17T13:03:01.592Z,1.23
2023-01-17T13:05:41.719Z,1.58
2023-01-17T13:08:21.285Z,1.25
2023-01-17T13:10:55.723Z,1.10
2023-01-17T13:13:25.619Z,2.08
2023-01-17T13:15:57.253Z,2.30
2023-01-17T13:18:29.656Z,1.67
2023-01-17T13:21:26.746Z,1.92
2023-01-17T13:23:59.196Z,1.60
2023-01-17T13:26:56.150Z,1.67
2023-01-17T13:29:41.865Z,1.13
2023-01-17T13:32:45.930Z,1.30
2023-01-17T13:35:37.155Z,1.40
2023-01-17T13:38:12.361Z,1.33
2023-01-17T13:40:53.627Z,1.27
2023-01-17T13:43:25.887Z,1.70
2023-01-17T13:45:54.966Z,1.23
2023-01-17T13:48:21.438Z,1.40
2023-01-17T13:51:02.706Z,1.42
2023-01-17T13:53:39.439Z,1.20
2023-01-17T13:56:28.620Z,1.30
2023-01-17T13:58:59.249Z,1.48
2023-01-17T14:01:25.826Z,1.58
2023-01-17T14:03:52.323Z,1.40
2023-01-17T14:06:46.406Z,1.42
2023-01-17T14:09:12.867Z,1.45
2023-01-17T14:12:05.973Z,1.63
2023-01-17T14:14:44.527Z,1.60
2023-01-17T14:17:20.544Z,1.40
2023-01-17T14:19:50.042Z,1.35
2023-01-17T14:22:22.955Z,1.42
2023-01-17T14:25:15.057Z,1.90
2023-01-17T14:27:58.259Z,1.50
2023-01-17T14:30:28.422Z,1.57
2023-01-17T14:33:01.335Z,2.00
2023-01-17T14:35:58.918Z,1.55
2023-01-17T14:38:31.634Z,1.90
2023-01-17T14:41:04.790Z,1.52
2023-01-17T14:43:34.776Z,1.90
2023-01-17T14:46:07.515Z,2.00
2023-01-17T14:48:34.450Z,1.63
2023-01-17T14:51:01.865Z,2.08
2023-01-17T14:53:31.429Z,2.30
2023-01-17T14:56:01.511Z,1.58
2023-01-17T14:58:30.827Z,1.50
2023-01-17T15:01:03.548Z,1.85
2023-01-17T15:03:35.237Z,2.10
2023-01-17T15:06:17.028Z,2.13
2023-01-17T15:08:43.989Z,1.90
2023-01-17T15:11:18.652Z,2.22
2023-01-17T15:13:49.819Z,2.92
2023-01-17T15:16:24.547Z,2.85
2023-01-17T15:18:52.973Z,2.30
2023-01-17T15:21:22.748Z,2.97
2023-01-17T15:23:54.270Z,2.40
2023-01-17T15:26:24.226Z,2.30
2023-01-17T15:28:52.952Z,2.03
2023-01-17T15:31:40.683Z,2.35
2023-01-17T15:34:09.385Z,2.13
2023-01-17T15:36:35.993Z,3.10
2023-01-17T15:39:06.550Z,3.38
2023-01-17T15:41:39.655Z,4.00
2023-01-17T15:44:08.224Z,3.38
2023-01-17T15:46:44.427Z,3.55
2023-01-17T15:49:18.597Z,1.80
2023-01-17T15:51:56.001Z,2.92
2023-01-17T15:54:40.615Z,2.70
2023-01-17T15:57:18.070Z,3.70
2023-01-17T16:00:07.037Z,1.98
2023-01-17T16:02:51.922Z,3.03
2023-01-17T16:05:33.936Z,2.40
2023-01-17T16:08:04.278Z,2.53
2023-01-17T16:10:36.409Z,2.50
2023-01-17T16:13:04.887Z,1.77
2023-01-17T16:15:31.528Z,3.20
2023-01-17T16:18:01.140Z,2.53
2023-01-17T16:20:33.533Z,3.00
2023-01-17T16:23:00.590Z,2.90
2023-01-17T16:25:32.449Z,3.05
2023-01-17T16:27:59.885Z,3.03
2023-01-17T16:30:27.353Z,2.70
2023-01-17T16:32:54.069Z,2.63
2023-01-17T16:35:29.290Z,2.22
2023-01-17T16:37:59.008Z,2.63
2023-01-17T16:40:28.112Z,2.38
2023-01-17T16:42:58.860Z,2.90
2023-01-17T16:45:25.720Z,2.60
2023-01-17T16:47:54.081Z,3.60
2023-01-17T16:50:23.580Z,3.05
2023-01-17T16:52:54.598Z,2.90
2023-01-17T16:55:25.204Z,2.80
2023-01-17T16:57:56.126Z,3.03
2023-01-17T17:00:23.125Z,3.53
2023-01-17T17:02:53.767Z,2.70
2023-01-17T17:05:20.382Z,3.00
2023-01-17T17:07:50.763Z,3.10
2023-01-17T17:10:19.885Z,2.97
2023-01-17T17:12:46.729Z,2.15
2023-01-17T17:15:13.958Z,1.88
2023-01-17T17:17:42.103Z,2.10
2023-01-17T17:20:14.178Z,1.58
2023-01-17T17:22:44.037Z,1.50
2023-01-17T17:25:15.952Z,1.60
2023-01-17T17:27:43.282Z,1.20
2023-01-17T17:30:10.843Z,1.40
2023-01-17T17:32:37.484Z,1.50
2023-01-17T17:35:04.671Z,1.20
2023-01-17T17:37:31.274Z,1.55
2023-01-17T17:39:57.890Z,1.30
2023-01-17T17:42:24.670Z,1.00
2023-01-17T17:44:51.360Z,1.30
2023-01-17T17:47:17.952Z,1.30
2023-01-17T17:49:44.579Z,1.33
2023-01-17T17:52:11.139Z,1.27
2023-01-17T17:54:37.728Z,1.30
2023-01-17T17:57:04.676Z,1.10
2023-01-17T17:59:31.256Z,1.10
2023-01-17T18:01:59.678Z,1.23
2023-01-17T18:04:27.144Z,1.40
2023-01-17T18:06:58.054Z,1.75
2023-01-17T18:09:24.679Z,1.60
2023-01-17T18:11:51.281Z,1.40
2023-01-17T18:14:20.992Z,1.90
2023-01-17T18:16:47.997Z,1.90
2023-01-17T18:19:20.114Z,2.30
2023-01-17T18:21:46.695Z,2.45
2023-01-17T18:24:15.080Z,1.48
2023-01-17T18:26:47.858Z,2.42
2023-01-17T18:29:15.876Z,1.40
2023-01-17T18:31:44.309Z,1.25
2023-01-17T18:34:14.016Z,1.90
2023-01-17T18:36:41.202Z,2.10
2023-01-17T18:39:22.784Z,2.22
2023-01-17T18:41:49.609Z,2.03
2023-01-17T18:44:16.381Z,1.45
2023-01-17T18:46:43.292Z,1.83
2023-01-17T18:49:11.628Z,1.50
2023-01-17T18:51:38.456Z,1.60
2023-01-17T18:54:06.923Z,2.20
2023-01-17T18:56:34.608Z,2.17
2023-01-17T18:59:01.967Z,2.13
2023-01-17T19:01:32.097Z,1.67
2023-01-17T19:04:02.268Z,3.25
2023-01-17T19:06:35.082Z,1.80
2023-01-17T19:09:02.798Z,2.67
2023-01-17T19:11:29.931Z,2.88
2023-01-17T19:13:56.980Z,1.90
2023-01-17T19:16:28.866Z,2.80
2023-01-17T19:18:58.060Z,2.47
2023-01-17T19:21:27.923Z,1.77
2023-01-17T19:23:55.917Z,2.13
2023-01-17T19:26:25.027Z,1.73
2023-01-17T19:28:52.042Z,2.05
2023-01-17T19:31:21.288Z,2.80
2023-01-17T19:33:49.960Z,1.88
2023-01-17T19:36:19.788Z,1.95
2023-01-17T19:39:02.912Z,2.78
2023-01-17T19:41:30.714Z,1.58
2023-01-17T19:43:59.434Z,2.47
2023-01-17T19:46:27.442Z,1.55
2023-01-17T19:48:55.719Z,1.80
2023-01-17T19:51:24.174Z,1.73
2023-01-17T19:53:51.202Z,1.40
2023-01-17T19:56:20.390Z,1.73
2023-01-17T19:58:47.733Z,1.90
2023-01-17T20:01:20.404Z,1.40
2023-01-17T20:03:48.683Z,1.58
2023-01-17T20:06:17.623Z,1.60
2023-01-17T20:08:45.139Z,1.77
2023-01-17T20:11:14.887Z,1.65
2023-01-17T20:13:42.310Z,1.00
2023-01-17T20:16:11.557Z,1.35
2023-01-17T20:18:38.726Z,1.70
2023-01-17T20:21:12.217Z,1.02
2023-01-17T20:23:42.292Z,1.70
2023-01-17T20:26:10.327Z,2.05
2023-01-17T20:28:39.557Z,1.88
2023-01-17T20:31:07.296Z,1.92
2023-01-17T20:33:35.158Z,1.95
2023-01-17T20:36:10.561Z,2.47
2023-01-17T20:38:45.290Z,1.85
2023-01-17T20:41:16.462Z,2.50
2023-01-17T20:43:44.164Z,1.75
2023-01-17T20:46:11.584Z,1.75
2023-01-17T20:48:44.122Z,1.50
2023-01-17T20:51:11.715Z,1.40
2023-01-17T20:53:39.834Z,1.52
2023-01-17T20:56:08.734Z,1.70
2023-01-17T20:58:35.778Z,1.63
2023-01-17T21:01:02.553Z,1.95
2023-01-17T21:03:29.370Z,1.90
2023-01-17T21:06:13.787Z,1.65
2023-01-17T21:08:43.198Z,1.55
2023-01-17T21:11:12.378Z,1.55
2023-01-17T21:13:40.151Z,1.83
2023-01-17T21:16:09.314Z,1.30
2023-01-17T21:18:36.334Z,1.58
2023-01-17T21:21:12.790Z,1.40
2023-01-17T21:23:40.948Z,1.60
2023-01-17T21:26:10.641Z,1.92
2023-01-17T21:28:39.777Z,1.70
2023-01-17T21:31:23.004Z,1.70
2023-01-17T21:33:52.508Z,1.58
2023-01-17T21:36:20.721Z,2.10
2023-01-17T21:38:52.247Z,2.10
2023-01-17T21:41:24.392Z,1.70
2023-01-17T21:43:58.392Z,1.40
2023-01-17T21:46:26.598Z,1.58
2023-01-17T21:48:53.487Z,2.00
2023-01-17T21:51:21.718Z,2.20
2023-01-17T21:53:48.324Z,1.70
2023-01-17T21:56:53.574Z,1.80
2023-01-17T21:59:20.100Z,1.70
2023-01-17T22:01:46.681Z,1.80
2023-01-17T22:04:13.308Z,1.70
2023-01-17T22:06:39.889Z,1.85
2023-01-17T22:09:07.244Z,1.90
2023-01-17T22:11:36.657Z,1.60
2023-01-17T22:14:07.422Z,1.58
2023-01-17T22:16:33.956Z,1.67
2023-01-17T22:19:00.568Z,1.77
2023-01-17T22:21:28.606Z,1.70
2023-01-17T22:23:57.970Z,1.92
2023-01-17T22:26:30.519Z,1.67
2023-01-17T22:29:00.665Z,1.85
2023-01-17T22:31:28.180Z,2.05
2023-01-17T22:34:01.007Z,2.00
2023-01-17T22:36:28.670Z,2.25
2023-01-17T22:38:55.694Z,1.48
2023-01-17T22:41:25.525Z,1.70
2023-01-17T22:43:56.449Z,2.30
2023-01-17T22:46:26.864Z,1.80
2023-01-17T22:48:55.209Z,1.45
2023-01-17T22:51:23.503Z,2.10
2023-01-17T22:53:52.259Z,2.00
2023-01-17T22:56:28.220Z,1.55
2023-01-17T22:58:55.223Z,1.75
2023-01-17T23:01:22.760Z,1.70
2023-01-17T23:03:55.362Z,1.20
2023-01-17T23:06:25.578Z,1.40
2023-01-17T23:08:54.133Z,1.70
2023-01-17T23:11:39.744Z,2.05
2023-01-17T23:14:12.872Z,1.67
2023-01-17T23:17:07.097Z,2.08
2023-01-17T23:19:36.975Z,1.77
2023-01-17T23:22:16.236Z,1.92
2023-01-17T23:24:45.543Z,1.60
2023-01-17T23:27:32.495Z,1.90
2023-01-17T23:29:59.031Z,1.77
2023-01-17T23:32:26.295Z,1.58
2023-01-17T23:34:52.960Z,1.35
2023-01-17T23:37:19.571Z,1.60
2023-01-17T23:39:46.159Z,1.15
2023-01-17T23:42:31.480Z,1.23
2023-01-17T23:44:58.069Z,1.50
2023-01-17T23:47:24.753Z,1.30
2023-01-17T23:49:51.318Z,1.20
2023-01-17T23:52:17.855Z,1.00
2023-01-17T23:54:44.464Z,1.17
2023-01-17T23:57:11.037Z,1.08
2023-01-17T23:59:37.592Z,1.23
